createdAt,value
2018-11-29T00:04:28.081Z,15.45
2018-11-29T00:09:37.152Z,14.82
2018-11-29T00:14:46.458Z,14.62
2018-11-29T00:19:55.555Z,16.12
2018-11-29T00:25:04.902Z,22.21
2018-11-29T00:30:14.052Z,22.27
2018-11-29T00:35:23.358Z,22.56
2018-11-29T00:40:32.473Z,17.29
2018-11-29T00:45:41.749Z,18.64
2018-11-29T00:50:51.872Z,17.42
2018-11-29T00:55:59.911Z,18.26
2018-11-29T01:01:08.949Z,18.57
2018-11-29T01:06:18.083Z,18.63
2018-11-29T01:11:27.218Z,21.41
2018-11-29T01:16:36.473Z,19.10
2018-11-29T01:21:45.537Z,17.24
2018-11-29T01:26:54.822Z,15.27
2018-11-29T01:32:03.923Z,11.96
2018-11-29T01:37:13.149Z,13.45
2018-11-29T01:42:22.237Z,13.45
2018-11-29T01:47:31.549Z,12.05
2018-11-29T01:52:40.629Z,10.29
2018-11-29T01:57:49.921Z,13.29
2018-11-29T02:02:59.001Z,10.87
2018-11-29T02:08:08.257Z,10.26
2018-11-29T02:13:17.398Z,15.16
2018-11-29T02:18:26.609Z,16.81
2018-11-29T02:23:35.758Z,12.09
2018-11-29T02:28:45.190Z,11.40
2018-11-29T02:33:54.270Z,16.52
2018-11-29T02:39:03.553Z,13.11
2018-11-29T02:44:12.644Z,16.49
2018-11-29T02:49:21.937Z,9.94
2018-11-29T02:54:31.051Z,12.97
2018-11-29T02:59:40.295Z,9.62
2018-11-29T03:04:49.458Z,14.14
2018-11-29T03:09:58.755Z,11.33
2018-11-29T03:15:07.900Z,12.60
2018-11-29T03:20:17.286Z,11.65
2018-11-29T03:25:26.454Z,15.51
2018-11-29T03:30:35.834Z,11.76
2018-11-29T03:35:44.947Z,11.35
2018-11-29T03:40:54.193Z,12.06
2018-11-29T03:46:03.292Z,14.01
2018-11-29T03:51:12.522Z,13.14
2018-11-29T03:56:21.606Z,11.14
2018-11-29T04:01:30.889Z,11.50
2018-11-29T04:06:40.025Z,8.24
2018-11-29T04:11:49.453Z,11.35
2018-11-29T04:16:58.555Z,9.19
2018-11-29T04:22:07.866Z,10.13
2018-11-29T04:27:16.897Z,13.45
2018-11-29T04:32:26.192Z,19.52
2018-11-29T04:37:35.288Z,18.27
2018-11-29T04:42:44.522Z,19.19
2018-11-29T04:47:53.712Z,16.93
2018-11-29T04:53:03.022Z,18.61
2018-11-29T04:58:12.144Z,23.24
2018-11-29T05:03:21.385Z,14.34
2018-11-29T05:08:30.467Z,15.24
2018-11-29T05:13:39.691Z,13.09
2018-11-29T05:18:49.088Z,9.38
2018-11-29T05:23:58.073Z,16.48
2018-11-29T05:29:07.161Z,10.32
2018-11-29T05:34:16.610Z,9.32
2018-11-29T05:39:25.762Z,9.88
2018-11-29T05:44:35.085Z,7.20
2018-11-29T05:49:44.200Z,6.47
2018-11-29T05:54:53.661Z,6.43
2018-11-29T06:00:02.676Z,6.28
2018-11-29T06:05:11.945Z,8.60
2018-11-29T06:10:21.030Z,7.29
2018-11-29T06:15:30.296Z,6.36
2018-11-29T06:20:39.392Z,9.26
2018-11-29T06:25:48.657Z,6.63
2018-11-29T06:30:57.783Z,8.65
2018-11-29T06:36:07.092Z,8.05
2018-11-29T06:41:16.225Z,8.18
2018-11-29T06:46:25.766Z,10.08
2018-11-29T06:51:34.617Z,8.69
2018-11-29T06:56:43.905Z,11.21
2018-11-29T07:01:53.027Z,8.06
2018-11-29T07:07:02.272Z,6.41
2018-11-29T07:12:11.377Z,7.43
2018-11-29T07:17:20.680Z,6.68
2018-11-29T07:22:29.841Z,7.52
2018-11-29T07:27:39.078Z,7.59
2018-11-29T07:32:48.160Z,6.54
2018-11-29T07:37:57.466Z,7.36
2018-11-29T07:43:06.602Z,7.60
2018-11-29T07:48:15.755Z,8.26
2018-11-29T07:53:24.842Z,7.34
2018-11-29T07:58:34.037Z,5.95
2018-11-29T08:03:43.175Z,6.71
2018-11-29T08:08:52.437Z,7.80
2018-11-29T08:14:01.527Z,7.64
2018-11-29T08:19:10.748Z,8.42
2018-11-29T08:24:19.866Z,4.18
2018-11-29T08:29:34.852Z,4.35
2018-11-29T08:34:37.765Z,5.28
2018-11-29T08:39:47.040Z,5.87
2018-11-29T08:44:56.129Z,7.79
2018-11-29T08:50:05.426Z,5.84
2018-11-29T08:55:14.525Z,6.65
2018-11-29T09:00:23.830Z,9.71
2018-11-29T09:05:34.112Z,7.50
2018-11-29T09:10:41.801Z,6.95
2018-11-29T09:15:50.903Z,8.08
2018-11-29T09:21:00.275Z,8.26
2018-11-29T09:26:09.423Z,9.27
2018-11-29T09:31:18.665Z,7.72
2018-11-29T09:36:27.826Z,6.43
2018-11-29T09:41:37.114Z,6.60
2018-11-29T09:46:46.199Z,6.48
2018-11-29T09:51:55.496Z,6.68
2018-11-29T09:57:04.579Z,4.14
2018-11-29T10:02:13.954Z,6.46
2018-11-29T10:07:23.097Z,7.20
2018-11-29T10:12:32.333Z,5.21
2018-11-29T10:17:41.890Z,5.35
2018-11-29T10:22:50.185Z,4.81
2018-11-29T10:27:59.335Z,6.78
2018-11-29T10:33:07.505Z,5.79
2018-11-29T10:38:16.602Z,8.46
2018-11-29T10:43:25.894Z,7.71
2018-11-29T10:48:35.006Z,8.17
2018-11-29T10:58:52.387Z,8.60
2018-11-29T11:04:01.470Z,6.38
2018-11-29T11:09:10.803Z,6.79
2018-11-29T11:14:20.255Z,6.46
2018-11-29T11:19:29.622Z,7.34
2018-11-29T11:24:38.769Z,6.33
2018-11-29T11:29:48.171Z,7.97
2018-11-29T11:34:57.304Z,7.39
2018-11-29T11:40:06.757Z,6.20
2018-11-29T11:45:16.997Z,6.86
2018-11-29T11:50:16.336Z,7.87
2018-11-29T11:55:30.007Z,7.10
2018-11-29T12:00:34.684Z,6.15
2018-11-29T12:05:43.834Z,5.16
2018-11-29T12:10:53.214Z,6.89
2018-11-29T12:16:02.385Z,5.42
2018-11-29T12:21:11.866Z,5.18
2018-11-29T12:26:21.039Z,6.38
2018-11-29T12:31:32.751Z,6.44
2018-11-29T12:36:31.941Z,4.54
2018-11-29T12:41:41.157Z,3.66
2018-11-29T12:46:50.298Z,4.09
2018-11-29T12:51:59.623Z,3.20
2018-11-29T12:57:08.931Z,2.80
2018-11-29T13:02:18.320Z,3.67
2018-11-29T13:07:27.450Z,4.36
2018-11-29T13:12:36.803Z,3.47
2018-11-29T13:17:49.150Z,3.96
2018-11-29T13:22:48.280Z,3.16
2018-11-29T13:27:57.425Z,4.17
2018-11-29T13:33:06.774Z,6.06
2018-11-29T13:38:15.889Z,3.81
2018-11-29T13:43:25.148Z,3.64
2018-11-29T13:48:34.254Z,2.37
2018-11-29T13:53:43.578Z,6.06
2018-11-29T13:58:52.710Z,4.08
2018-11-29T14:04:02.003Z,4.99
2018-11-29T14:09:11.102Z,4.38
2018-11-29T14:14:20.395Z,5.72
2018-11-29T14:19:29.567Z,3.74
2018-11-29T14:24:38.835Z,3.55
2018-11-29T14:29:47.985Z,3.69
2018-11-29T14:34:57.685Z,2.59
2018-11-29T14:40:06.914Z,3.88
2018-11-29T14:45:16.277Z,3.57
2018-11-29T14:50:25.475Z,3.86
2018-11-29T14:55:34.839Z,3.78
2018-11-29T15:00:43.986Z,4.69
2018-11-29T15:05:53.357Z,3.70
2018-11-29T15:11:02.475Z,3.59
2018-11-29T15:16:11.854Z,3.03
2018-11-29T15:21:20.949Z,2.97
2018-11-29T15:26:30.345Z,3.05
2018-11-29T15:31:39.470Z,3.96
2018-11-29T15:36:48.800Z,4.01
2018-11-29T15:41:57.880Z,3.15
2018-11-29T15:47:07.211Z,3.19
2018-11-29T15:52:16.309Z,3.52
2018-11-29T15:57:25.721Z,4.04
2018-11-29T16:02:34.848Z,3.77
2018-11-29T16:07:44.166Z,4.55
2018-11-29T16:12:53.274Z,3.32
2018-11-29T16:18:02.673Z,3.57
2018-11-29T16:23:11.773Z,4.63
2018-11-29T16:28:21.055Z,5.32
2018-11-29T16:33:30.182Z,5.96
2018-11-29T16:38:39.578Z,4.38
2018-11-29T16:43:48.693Z,6.75
2018-11-29T16:48:58.099Z,6.19
2018-11-29T16:54:07.259Z,5.95
2018-11-29T16:59:16.542Z,4.14
2018-11-29T17:04:25.667Z,3.94
2018-11-29T17:09:35.017Z,4.30
2018-11-29T17:14:44.129Z,5.02
2018-11-29T17:19:53.438Z,4.42
2018-11-29T17:25:02.582Z,3.15
2018-11-29T17:30:11.982Z,3.82
2018-11-29T17:35:21.129Z,3.48
2018-11-29T17:40:30.504Z,3.76
2018-11-29T17:45:39.724Z,5.65
2018-11-29T17:50:49.039Z,4.14
2018-11-29T17:55:58.143Z,3.40
2018-11-29T18:01:07.581Z,5.15
2018-11-29T18:06:16.726Z,5.78
2018-11-29T18:11:26.035Z,5.63
2018-11-29T18:16:35.129Z,6.82
2018-11-29T18:21:44.454Z,7.33
2018-11-29T18:26:53.579Z,4.50
2018-11-29T18:32:02.937Z,3.76
2018-11-29T18:37:12.039Z,4.34
2018-11-29T18:42:21.359Z,5.26
2018-11-29T18:47:30.502Z,5.15
2018-11-29T18:52:38.474Z,4.57
2018-11-29T18:57:47.628Z,4.78
2018-11-29T19:02:57.310Z,6.86
2018-11-29T19:08:06.147Z,8.66
2018-11-29T19:13:15.455Z,5.50
2018-11-29T19:18:24.562Z,6.26
2018-11-29T19:23:33.997Z,7.26
2018-11-29T19:28:43.131Z,7.39
2018-11-29T19:33:52.463Z,6.33
2018-11-29T19:39:01.656Z,5.85
2018-11-29T19:44:11.198Z,5.36
2018-11-29T19:49:20.317Z,6.73
2018-11-29T19:54:29.721Z,6.04
2018-11-29T19:59:38.851Z,7.23
2018-11-29T20:04:48.259Z,6.71
2018-11-29T20:09:57.443Z,8.64
2018-11-29T20:15:06.944Z,6.98
2018-11-29T20:20:16.100Z,7.31
2018-11-29T20:25:25.504Z,6.89
2018-11-29T20:30:34.642Z,6.82
2018-11-29T20:35:44.094Z,6.37
2018-11-29T20:40:53.193Z,7.51
2018-11-29T20:46:02.542Z,6.42
2018-11-29T20:51:11.721Z,14.30
2018-11-29T20:56:21.034Z,8.27
2018-11-29T21:01:30.332Z,5.83
2018-11-29T21:06:39.769Z,6.62
2018-11-29T21:11:48.870Z,7.03
2018-11-29T21:16:58.174Z,7.92
2018-11-29T21:22:07.312Z,5.35
2018-11-29T21:27:16.621Z,7.68
2018-11-29T21:32:25.763Z,7.71
2018-11-29T21:37:35.135Z,9.46
2018-11-29T21:42:44.249Z,8.26
2018-11-29T21:47:53.780Z,9.10
2018-11-29T21:53:03.010Z,7.83
2018-11-29T21:58:12.392Z,7.91
2018-11-29T22:03:21.490Z,6.14
2018-11-29T22:08:30.837Z,5.70
2018-11-29T22:13:39.947Z,7.45
2018-11-29T22:18:49.239Z,7.54
2018-11-29T22:23:58.354Z,5.98
2018-11-29T22:29:07.763Z,6.18
2018-11-29T22:34:16.902Z,7.54
2018-11-29T22:39:26.265Z,5.78
2018-11-29T22:44:35.600Z,7.83
2018-11-29T22:49:44.947Z,7.50
2018-11-29T22:54:54.061Z,8.20
2018-11-29T23:00:03.457Z,7.25
2018-11-29T23:05:12.586Z,9.65
2018-11-29T23:10:21.950Z,8.55
2018-11-29T23:15:31.039Z,7.21
2018-11-29T23:20:40.369Z,8.00
2018-11-29T23:25:49.478Z,7.05
2018-11-29T23:30:58.877Z,7.70
2018-11-29T23:36:07.976Z,8.21
2018-11-29T23:41:17.343Z,7.46
2018-11-29T23:46:26.464Z,7.69
2018-11-29T23:51:35.864Z,6.06
2018-11-29T23:56:44.961Z,8.43
